Campos Novos, Brazil
Current Conditions -  °F | °C
As of 6:00 PM on Wednesday 26 Nov 2014 (Local Time) from SBCH Reporting Station
Few Clouds Few Clouds  
Wind Chill: 84°   Ceiling: Unl
Heat Index: 85°   Visibility: 6mi
Dew Point: 63°   Wind: 10mph
Humidity: 48%   Direction: 250°WSW
Pressure: 29.8"   Gusts: NA
Location:  27.4°S, 51.22°W
Report Text: SBCH 262000Z 25009KT 9999 FEW020 29/17 Q1009
Loading
Personal Weather Stations






























Interactive Weather Map New forecast layout! Learn more

10-Day Weather Forecast

Advertisements
Track Severe Weather on mobile